sensor_id;sensor_type;location;lat;lon;timestamp;temperature;humidity
52127;DHT22;38120;53.176;6.614;2024-02-14T00:01:07;6.80;99.90
52127;DHT22;38120;53.176;6.614;2024-02-14T00:03:35;8.00;99.90
52127;DHT22;38120;53.176;6.614;2024-02-14T00:06:00;6.80;99.90
52127;DHT22;38120;53.176;6.614;2024-02-14T00:08:26;7.00;99.90
52127;DHT22;38120;53.176;6.614;2024-02-14T00:10:52;6.80;99.90
52127;DHT22;38120;53.176;6.614;2024-02-14T00:13:17;6.80;99.90
52127;DHT22;38120;53.176;6.614;2024-02-14T00:15:44;6.90;99.90
52127;DHT22;38120;53.176;6.614;2024-02-14T00:18:11;6.80;99.90
52127;DHT22;38120;53.176;6.614;2024-02-14T00:20:37;7.30;99.90
52127;DHT22;38120;53.176;6.614;2024-02-14T00:23:04;6.80;99.90
52127;DHT22;38120;53.176;6.614;2024-02-14T00:25:30;6.90;99.90
52127;DHT22;38120;53.176;6.614;2024-02-14T00:27:55;7.20;99.90
52127;DHT22;38120;53.176;6.614;2024-02-14T00:30:21;6.90;99.90
52127;DHT22;38120;53.176;6.614;2024-02-14T00:32:48;6.90;99.90
52127;DHT22;38120;53.176;6.614;2024-02-14T00:35:14;6.80;99.90
52127;DHT22;38120;53.176;6.614;2024-02-14T00:37:40;6.90;99.90
52127;DHT22;38120;53.176;6.614;2024-02-14T00:40:06;6.90;99.90
52127;DHT22;38120;53.176;6.614;2024-02-14T00:42:32;6.90;99.90
52127;DHT22;38120;53.176;6.614;2024-02-14T00:44:57;6.90;99.90
52127;DHT22;38120;53.176;6.614;2024-02-14T00:47:23;6.90;99.90
52127;DHT22;38120;53.176;6.614;2024-02-14T00:49:49;6.90;99.90
52127;DHT22;38120;53.176;6.614;2024-02-14T00:52:14;7.00;99.90
52127;DHT22;38120;53.176;6.614;2024-02-14T00:54:42;7.00;99.90
52127;DHT22;38120;53.176;6.614;2024-02-14T00:57:07;7.00;99.90
52127;DHT22;38120;53.176;6.614;2024-02-14T00:59:33;7.10;99.90
52127;DHT22;38120;53.176;6.614;2024-02-14T01:01:59;7.00;99.90
52127;DHT22;38120;53.176;6.614;2024-02-14T01:04:25;7.00;99.90
52127;DHT22;38120;53.176;6.614;2024-02-14T01:06:51;7.10;99.90
52127;DHT22;38120;53.176;6.614;2024-02-14T01:09:18;7.00;99.90
52127;DHT22;38120;53.176;6.614;2024-02-14T01:11:44;7.00;99.90
52127;DHT22;38120;53.176;6.614;2024-02-14T01:14:10;7.10;99.90
52127;DHT22;38120;53.176;6.614;2024-02-14T01:16:44;7.10;99.90
52127;DHT22;38120;53.176;6.614;2024-02-14T01:19:11;7.10;99.90
52127;DHT22;38120;53.176;6.614;2024-02-14T01:21:37;7.10;99.90
52127;DHT22;38120;53.176;6.614;2024-02-14T01:24:03;7.10;99.90
52127;DHT22;38120;53.176;6.614;2024-02-14T01:26:31;7.10;99.90
52127;DHT22;38120;53.176;6.614;2024-02-14T01:28:57;7.10;99.90
52127;DHT22;38120;53.176;6.614;2024-02-14T01:31:26;7.20;99.90
52127;DHT22;38120;53.176;6.614;2024-02-14T01:33:53;7.20;99.90
52127;DHT22;38120;53.176;6.614;2024-02-14T01:36:18;7.20;99.90
52127;DHT22;38120;53.176;6.614;2024-02-14T01:38:44;7.80;99.90
52127;DHT22;38120;53.176;6.614;2024-02-14T01:41:10;7.20;99.90
52127;DHT22;38120;53.176;6.614;2024-02-14T01:43:36;7.20;99.90
52127;DHT22;38120;53.176;6.614;2024-02-14T01:46:06;7.20;99.90
52127;DHT22;38120;53.176;6.614;2024-02-14T01:48:34;7.20;99.90
52127;DHT22;38120;53.176;6.614;2024-02-14T01:51:00;7.30;99.90
52127;DHT22;38120;53.176;6.614;2024-02-14T01:53:27;7.30;99.90
52127;DHT22;38120;53.176;6.614;2024-02-14T01:55:56;7.30;99.90
52127;DHT22;38120;53.176;6.614;2024-02-14T01:58:22;7.30;99.90
52127;DHT22;38120;53.176;6.614;2024-02-14T02:00:49;7.30;99.90
52127;DHT22;38120;53.176;6.614;2024-02-14T02:03:14;7.30;99.90
52127;DHT22;38120;53.176;6.614;2024-02-14T02:05:41;7.30;99.90
52127;DHT22;38120;53.176;6.614;2024-02-14T02:08:08;7.30;99.90
52127;DHT22;38120;53.176;6.614;2024-02-14T02:10:35;7.40;99.90
52127;DHT22;38120;53.176;6.614;2024-02-14T02:13:01;7.40;99.90
52127;DHT22;38120;53.176;6.614;2024-02-14T02:15:27;7.40;99.90
52127;DHT22;38120;53.176;6.614;2024-02-14T02:17:54;7.60;99.90
52127;DHT22;38120;53.176;6.614;2024-02-14T02:20:20;7.40;99.90
52127;DHT22;38120;53.176;6.614;2024-02-14T02:22:49;7.40;99.90
52127;DHT22;38120;53.176;6.614;2024-02-14T02:25:15;7.50;99.90
52127;DHT22;38120;53.176;6.614;2024-02-14T02:27:40;7.50;99.90
52127;DHT22;38120;53.176;6.614;2024-02-14T02:30:07;7.50;99.90
52127;DHT22;38120;53.176;6.614;2024-02-14T02:32:34;7.50;99.90
52127;DHT22;38120;53.176;6.614;2024-02-14T02:34:59;7.50;99.90
52127;DHT22;38120;53.176;6.614;2024-02-14T02:37:27;7.50;99.90
52127;DHT22;38120;53.176;6.614;2024-02-14T02:39:55;7.60;99.90
52127;DHT22;38120;53.176;6.614;2024-02-14T02:42:22;7.60;99.90
52127;DHT22;38120;53.176;6.614;2024-02-14T02:44:51;7.60;99.90
52127;DHT22;38120;53.176;6.614;2024-02-14T02:47:17;7.60;99.90
52127;DHT22;38120;53.176;6.614;2024-02-14T02:49:43;7.60;99.90
52127;DHT22;38120;53.176;6.614;2024-02-14T02:52:12;7.60;99.90
52127;DHT22;38120;53.176;6.614;2024-02-14T02:54:38;7.70;99.90
52127;DHT22;38120;53.176;6.614;2024-02-14T02:57:10;7.70;99.90
52127;DHT22;38120;53.176;6.614;2024-02-14T02:59:36;7.70;99.90
52127;DHT22;38120;53.176;6.614;2024-02-14T03:02:02;7.70;99.90
52127;DHT22;38120;53.176;6.614;2024-02-14T03:04:28;7.80;99.90
52127;DHT22;38120;53.176;6.614;2024-02-14T03:06:57;7.80;99.90
52127;DHT22;38120;53.176;6.614;2024-02-14T03:09:23;7.80;99.90
52127;DHT22;38120;53.176;6.614;2024-02-14T03:11:48;7.80;99.90
52127;DHT22;38120;53.176;6.614;2024-02-14T03:14:14;7.90;99.90
52127;DHT22;38120;53.176;6.614;2024-02-14T03:16:40;7.90;99.90
52127;DHT22;38120;53.176;6.614;2024-02-14T03:19:06;7.90;99.90
52127;DHT22;38120;53.176;6.614;2024-02-14T03:21:32;8.00;99.90
52127;DHT22;38120;53.176;6.614;2024-02-14T03:24:03;8.00;99.90
52127;DHT22;38120;53.176;6.614;2024-02-14T03:26:31;8.00;99.90
52127;DHT22;38120;53.176;6.614;2024-02-14T03:29:03;8.00;99.90
52127;DHT22;38120;53.176;6.614;2024-02-14T03:31:32;8.10;99.90
52127;DHT22;38120;53.176;6.614;2024-02-14T03:33:58;8.10;99.90
52127;DHT22;38120;53.176;6.614;2024-02-14T03:36:23;8.10;99.90
52127;DHT22;38120;53.176;6.614;2024-02-14T03:38:52;8.20;99.90
52127;DHT22;38120;53.176;6.614;2024-02-14T03:41:18;8.10;99.90
52127;DHT22;38120;53.176;6.614;2024-02-14T03:43:43;8.20;99.90
52127;DHT22;38120;53.176;6.614;2024-02-14T03:46:09;8.20;99.90
52127;DHT22;38120;53.176;6.614;2024-02-14T03:48:35;8.20;99.90
52127;DHT22;38120;53.176;6.614;2024-02-14T03:51:01;8.20;99.90
52127;DHT22;38120;53.176;6.614;2024-02-14T03:53:28;8.20;99.90
52127;DHT22;38120;53.176;6.614;2024-02-14T03:55:54;8.20;99.90
52127;DHT22;38120;53.176;6.614;2024-02-14T03:58:20;8.50;99.90
52127;DHT22;38120;53.176;6.614;2024-02-14T04:00:49;8.40;99.90
52127;DHT22;38120;53.176;6.614;2024-02-14T04:03:16;8.40;99.90
52127;DHT22;38120;53.176;6.614;2024-02-14T04:05:42;8.40;99.90
52127;DHT22;38120;53.176;6.614;2024-02-14T04:08:07;8.50;99.90
52127;DHT22;38120;53.176;6.614;2024-02-14T04:10:36;8.50;99.90
52127;DHT22;38120;53.176;6.614;2024-02-14T04:13:05;8.50;99.90
52127;DHT22;38120;53.176;6.614;2024-02-14T04:15:32;8.50;99.90
52127;DHT22;38120;53.176;6.614;2024-02-14T04:17:58;8.60;99.90
52127;DHT22;38120;53.176;6.614;2024-02-14T04:20:25;8.60;99.90
52127;DHT22;38120;53.176;6.614;2024-02-14T04:22:51;8.60;99.90
52127;DHT22;38120;53.176;6.614;2024-02-14T04:25:16;8.70;99.90
52127;DHT22;38120;53.176;6.614;2024-02-14T04:27:43;8.70;99.90
52127;DHT22;38120;53.176;6.614;2024-02-14T04:30:09;8.70;99.90
52127;DHT22;38120;53.176;6.614;2024-02-14T04:32:35;8.70;99.90
52127;DHT22;38120;53.176;6.614;2024-02-14T04:35:01;8.80;99.90
52127;DHT22;38120;53.176;6.614;2024-02-14T04:37:27;8.80;99.90
52127;DHT22;38120;53.176;6.614;2024-02-14T04:39:53;8.90;99.90
52127;DHT22;38120;53.176;6.614;2024-02-14T04:42:18;9.00;99.90
52127;DHT22;38120;53.176;6.614;2024-02-14T04:44:44;8.90;99.90
52127;DHT22;38120;53.176;6.614;2024-02-14T04:47:11;9.00;99.90
52127;DHT22;38120;53.176;6.614;2024-02-14T04:49:37;9.00;99.90
52127;DHT22;38120;53.176;6.614;2024-02-14T04:52:03;9.00;99.90
52127;DHT22;38120;53.176;6.614;2024-02-14T04:54:29;9.10;99.90
52127;DHT22;38120;53.176;6.614;2024-02-14T04:56:55;9.10;99.90
52127;DHT22;38120;53.176;6.614;2024-02-14T04:59:21;9.20;99.90
52127;DHT22;38120;53.176;6.614;2024-02-14T05:01:46;9.20;99.90
52127;DHT22;38120;53.176;6.614;2024-02-14T05:04:12;9.20;99.90
52127;DHT22;38120;53.176;6.614;2024-02-14T05:06:42;9.20;99.90
52127;DHT22;38120;53.176;6.614;2024-02-14T05:09:08;9.30;99.90
52127;DHT22;38120;53.176;6.614;2024-02-14T05:11:36;9.30;99.90
52127;DHT22;38120;53.176;6.614;2024-02-14T05:14:02;9.40;99.90
52127;DHT22;38120;53.176;6.614;2024-02-14T05:16:29;9.40;99.90
52127;DHT22;38120;53.176;6.614;2024-02-14T05:18:54;9.40;99.90
52127;DHT22;38120;53.176;6.614;2024-02-14T05:21:20;9.40;99.90
52127;DHT22;38120;53.176;6.614;2024-02-14T05:23:47;9.40;99.90
52127;DHT22;38120;53.176;6.614;2024-02-14T05:26:13;9.40;99.90
52127;DHT22;38120;53.176;6.614;2024-02-14T05:28:39;9.40;99.90
52127;DHT22;38120;53.176;6.614;2024-02-14T05:31:05;9.50;99.90
52127;DHT22;38120;53.176;6.614;2024-02-14T05:33:31;9.50;99.90
52127;DHT22;38120;53.176;6.614;2024-02-14T05:35:56;9.50;99.90
52127;DHT22;38120;53.176;6.614;2024-02-14T05:38:22;9.50;99.90
52127;DHT22;38120;53.176;6.614;2024-02-14T05:40:49;9.60;99.90
52127;DHT22;38120;53.176;6.614;2024-02-14T05:43:15;9.50;99.90
52127;DHT22;38120;53.176;6.614;2024-02-14T05:45:41;9.50;99.90
52127;DHT22;38120;53.176;6.614;2024-02-14T05:48:07;9.60;99.90
52127;DHT22;38120;53.176;6.614;2024-02-14T05:50:33;9.50;99.90
52127;DHT22;38120;53.176;6.614;2024-02-14T05:52:59;9.60;99.90
52127;DHT22;38120;53.176;6.614;2024-02-14T05:55:25;9.60;99.90
52127;DHT22;38120;53.176;6.614;2024-02-14T05:57:52;9.60;99.90
52127;DHT22;38120;53.176;6.614;2024-02-14T06:00:22;9.60;99.90
52127;DHT22;38120;53.176;6.614;2024-02-14T06:02:48;9.60;99.90
52127;DHT22;38120;53.176;6.614;2024-02-14T06:05:15;9.60;99.90
52127;DHT22;38120;53.176;6.614;2024-02-14T06:07:41;9.60;99.90
52127;DHT22;38120;53.176;6.614;2024-02-14T06:10:08;10.00;99.90
52127;DHT22;38120;53.176;6.614;2024-02-14T06:12:34;9.70;99.90
52127;DHT22;38120;53.176;6.614;2024-02-14T06:15:01;9.70;99.90
52127;DHT22;38120;53.176;6.614;2024-02-14T06:17:26;9.70;99.90
52127;DHT22;38120;53.176;6.614;2024-02-14T06:19:53;9.70;99.90
52127;DHT22;38120;53.176;6.614;2024-02-14T06:22:18;9.70;99.90
52127;DHT22;38120;53.176;6.614;2024-02-14T06:24:44;9.70;99.90
52127;DHT22;38120;53.176;6.614;2024-02-14T06:27:10;9.80;99.90
52127;DHT22;38120;53.176;6.614;2024-02-14T06:29:36;9.80;99.90
52127;DHT22;38120;53.176;6.614;2024-02-14T06:32:02;9.90;99.90
52127;DHT22;38120;53.176;6.614;2024-02-14T06:34:27;10.70;99.90
52127;DHT22;38120;53.176;6.614;2024-02-14T06:36:54;9.90;99.90
52127;DHT22;38120;53.176;6.614;2024-02-14T06:39:19;9.90;99.90
52127;DHT22;38120;53.176;6.614;2024-02-14T06:41:46;9.90;99.90
52127;DHT22;38120;53.176;6.614;2024-02-14T06:44:13;10.00;99.90
52127;DHT22;38120;53.176;6.614;2024-02-14T06:46:38;10.00;99.90
52127;DHT22;38120;53.176;6.614;2024-02-14T06:49:04;10.00;99.90
52127;DHT22;38120;53.176;6.614;2024-02-14T06:51:30;10.00;99.90
52127;DHT22;38120;53.176;6.614;2024-02-14T06:53:56;10.00;99.90
52127;DHT22;38120;53.176;6.614;2024-02-14T06:56:22;10.10;99.90
52127;DHT22;38120;53.176;6.614;2024-02-14T06:58:48;10.10;99.90
52127;DHT22;38120;53.176;6.614;2024-02-14T07:01:19;9.50;99.90
52127;DHT22;38120;53.176;6.614;2024-02-14T07:03:48;10.20;99.90
52127;DHT22;38120;53.176;6.614;2024-02-14T07:06:15;10.20;99.90
52127;DHT22;38120;53.176;6.614;2024-02-14T07:08:40;10.20;99.90
52127;DHT22;38120;53.176;6.614;2024-02-14T07:11:06;10.20;99.90
52127;DHT22;38120;53.176;6.614;2024-02-14T07:13:32;10.20;99.90
52127;DHT22;38120;53.176;6.614;2024-02-14T07:15:57;10.20;99.90
52127;DHT22;38120;53.176;6.614;2024-02-14T07:18:23;10.20;99.90
52127;DHT22;38120;53.176;6.614;2024-02-14T07:20:49;10.30;99.90
52127;DHT22;38120;53.176;6.614;2024-02-14T07:23:14;10.30;99.90
52127;DHT22;38120;53.176;6.614;2024-02-14T07:25:40;10.20;99.90
52127;DHT22;38120;53.176;6.614;2024-02-14T07:28:06;10.30;99.90
52127;DHT22;38120;53.176;6.614;2024-02-14T07:30:32;10.20;99.90
52127;DHT22;38120;53.176;6.614;2024-02-14T07:32:58;10.30;99.90
52127;DHT22;38120;53.176;6.614;2024-02-14T07:35:24;10.20;99.90
52127;DHT22;38120;53.176;6.614;2024-02-14T07:37:51;10.20;99.90
52127;DHT22;38120;53.176;6.614;2024-02-14T07:40:17;10.20;99.90
52127;DHT22;38120;53.176;6.614;2024-02-14T07:42:43;10.20;99.90
52127;DHT22;38120;53.176;6.614;2024-02-14T07:45:09;10.30;99.90
52127;DHT22;38120;53.176;6.614;2024-02-14T07:47:34;10.30;99.90
52127;DHT22;38120;53.176;6.614;2024-02-14T07:50:00;10.30;99.90
52127;DHT22;38120;53.176;6.614;2024-02-14T07:52:26;10.30;99.90
52127;DHT22;38120;53.176;6.614;2024-02-14T07:54:55;10.30;99.90
52127;DHT22;38120;53.176;6.614;2024-02-14T07:57:24;10.30;99.90
52127;DHT22;38120;53.176;6.614;2024-02-14T07:59:51;10.40;99.90
52127;DHT22;38120;53.176;6.614;2024-02-14T08:02:17;10.30;99.90
52127;DHT22;38120;53.176;6.614;2024-02-14T08:04:43;10.30;99.90
52127;DHT22;38120;53.176;6.614;2024-02-14T08:07:09;10.30;99.90
52127;DHT22;38120;53.176;6.614;2024-02-14T08:09:35;10.40;99.90
52127;DHT22;38120;53.176;6.614;2024-02-14T08:12:02;10.40;99.90
52127;DHT22;38120;53.176;6.614;2024-02-14T08:14:28;10.40;99.90
52127;DHT22;38120;53.176;6.614;2024-02-14T08:16:54;10.40;99.90
52127;DHT22;38120;53.176;6.614;2024-02-14T08:19:20;10.40;99.90
52127;DHT22;38120;53.176;6.614;2024-02-14T08:21:45;10.40;99.90
52127;DHT22;38120;53.176;6.614;2024-02-14T08:24:11;10.50;99.90
52127;DHT22;38120;53.176;6.614;2024-02-14T08:26:37;10.50;99.90
52127;DHT22;38120;53.176;6.614;2024-02-14T08:29:03;10.60;99.90
52127;DHT22;38120;53.176;6.614;2024-02-14T08:31:29;10.60;99.90
52127;DHT22;38120;53.176;6.614;2024-02-14T08:33:55;10.60;99.90
52127;DHT22;38120;53.176;6.614;2024-02-14T08:36:21;10.70;99.90
52127;DHT22;38120;53.176;6.614;2024-02-14T08:38:46;10.60;99.90
52127;DHT22;38120;53.176;6.614;2024-02-14T08:41:12;10.60;99.90
52127;DHT22;38120;53.176;6.614;2024-02-14T08:43:38;10.70;99.90
52127;DHT22;38120;53.176;6.614;2024-02-14T08:46:11;10.70;99.90
52127;DHT22;38120;53.176;6.614;2024-02-14T08:48:37;10.70;99.90
52127;DHT22;38120;53.176;6.614;2024-02-14T08:51:07;10.70;99.90
52127;DHT22;38120;53.176;6.614;2024-02-14T08:53:35;10.70;99.90
52127;DHT22;38120;53.176;6.614;2024-02-14T08:56:01;10.70;99.90
52127;DHT22;38120;53.176;6.614;2024-02-14T08:58:27;10.80;99.90
52127;DHT22;38120;53.176;6.614;2024-02-14T09:00:52;10.80;99.90
52127;DHT22;38120;53.176;6.614;2024-02-14T09:03:19;10.80;99.90
52127;DHT22;38120;53.176;6.614;2024-02-14T09:05:45;10.80;99.90
52127;DHT22;38120;53.176;6.614;2024-02-14T09:08:12;10.80;99.90
52127;DHT22;38120;53.176;6.614;2024-02-14T09:10:38;10.80;99.90
52127;DHT22;38120;53.176;6.614;2024-02-14T09:13:05;10.80;99.90
52127;DHT22;38120;53.176;6.614;2024-02-14T09:15:33;10.80;99.90
52127;DHT22;38120;53.176;6.614;2024-02-14T09:17:59;10.80;99.90
52127;DHT22;38120;53.176;6.614;2024-02-14T09:20:26;10.80;99.90
52127;DHT22;38120;53.176;6.614;2024-02-14T09:22:51;10.80;99.90
52127;DHT22;38120;53.176;6.614;2024-02-14T09:25:19;10.80;99.90
52127;DHT22;38120;53.176;6.614;2024-02-14T09:27:45;10.90;99.90
52127;DHT22;38120;53.176;6.614;2024-02-14T09:30:12;10.90;99.90
52127;DHT22;38120;53.176;6.614;2024-02-14T09:32:38;10.90;99.90
52127;DHT22;38120;53.176;6.614;2024-02-14T09:35:04;10.90;99.90
52127;DHT22;38120;53.176;6.614;2024-02-14T09:37:32;11.00;99.90
52127;DHT22;38120;53.176;6.614;2024-02-14T09:39:58;11.00;99.90
52127;DHT22;38120;53.176;6.614;2024-02-14T09:42:38;11.00;99.90
52127;DHT22;38120;53.176;6.614;2024-02-14T09:45:09;11.00;99.90
52127;DHT22;38120;53.176;6.614;2024-02-14T09:47:35;11.00;99.90
52127;DHT22;38120;53.176;6.614;2024-02-14T09:50:02;11.10;99.90
52127;DHT22;38120;53.176;6.614;2024-02-14T09:52:33;11.10;99.90
52127;DHT22;38120;53.176;6.614;2024-02-14T09:54:59;11.10;99.90
52127;DHT22;38120;53.176;6.614;2024-02-14T09:57:26;11.10;99.90
52127;DHT22;38120;53.176;6.614;2024-02-14T09:59:54;11.10;99.90
52127;DHT22;38120;53.176;6.614;2024-02-14T10:02:21;11.10;99.90
52127;DHT22;38120;53.176;6.614;2024-02-14T10:04:47;11.10;99.90
52127;DHT22;38120;53.176;6.614;2024-02-14T10:07:13;11.10;99.90
52127;DHT22;38120;53.176;6.614;2024-02-14T10:09:42;11.10;99.90
52127;DHT22;38120;53.176;6.614;2024-02-14T10:12:09;11.10;99.90
52127;DHT22;38120;53.176;6.614;2024-02-14T10:14:36;11.10;99.90
52127;DHT22;38120;53.176;6.614;2024-02-14T10:17:05;11.10;99.90
52127;DHT22;38120;53.176;6.614;2024-02-14T10:19:31;11.10;99.90
52127;DHT22;38120;53.176;6.614;2024-02-14T10:22:00;11.20;99.90
52127;DHT22;38120;53.176;6.614;2024-02-14T10:24:29;11.20;99.90
52127;DHT22;38120;53.176;6.614;2024-02-14T10:26:58;11.20;99.90
52127;DHT22;38120;53.176;6.614;2024-02-14T10:29:25;11.20;99.90
52127;DHT22;38120;53.176;6.614;2024-02-14T10:31:52;11.20;99.90
52127;DHT22;38120;53.176;6.614;2024-02-14T10:34:19;11.20;99.90
52127;DHT22;38120;53.176;6.614;2024-02-14T10:36:53;11.30;99.90
52127;DHT22;38120;53.176;6.614;2024-02-14T10:39:19;11.40;99.90
52127;DHT22;38120;53.176;6.614;2024-02-14T10:41:46;11.30;99.90
52127;DHT22;38120;53.176;6.614;2024-02-14T10:44:11;11.30;99.90
52127;DHT22;38120;53.176;6.614;2024-02-14T10:46:40;11.30;99.90
52127;DHT22;38120;53.176;6.614;2024-02-14T10:49:07;11.40;99.90
52127;DHT22;38120;53.176;6.614;2024-02-14T10:51:35;11.40;99.90
52127;DHT22;38120;53.176;6.614;2024-02-14T10:54:12;11.40;99.90
52127;DHT22;38120;53.176;6.614;2024-02-14T10:56:41;11.40;99.90
52127;DHT22;38120;53.176;6.614;2024-02-14T10:59:11;11.40;99.90
52127;DHT22;38120;53.176;6.614;2024-02-14T11:01:39;11.40;99.90
52127;DHT22;38120;53.176;6.614;2024-02-14T11:04:05;11.50;99.90
52127;DHT22;38120;53.176;6.614;2024-02-14T11:06:31;11.50;99.90
52127;DHT22;38120;53.176;6.614;2024-02-14T11:08:59;11.40;99.90
52127;DHT22;38120;53.176;6.614;2024-02-14T11:11:28;11.50;99.90
52127;DHT22;38120;53.176;6.614;2024-02-14T11:13:56;11.50;99.90
52127;DHT22;38120;53.176;6.614;2024-02-14T11:16:30;11.50;99.90
52127;DHT22;38120;53.176;6.614;2024-02-14T11:19:11;11.50;99.90
52127;DHT22;38120;53.176;6.614;2024-02-14T11:21:43;11.50;99.90
52127;DHT22;38120;53.176;6.614;2024-02-14T11:24:14;11.50;99.90
52127;DHT22;38120;53.176;6.614;2024-02-14T11:26:50;11.50;99.90
52127;DHT22;38120;53.176;6.614;2024-02-14T11:29:21;11.50;99.90
52127;DHT22;38120;53.176;6.614;2024-02-14T11:31:47;11.60;99.90
52127;DHT22;38120;53.176;6.614;2024-02-14T11:34:16;11.50;99.90
52127;DHT22;38120;53.176;6.614;2024-02-14T11:36:43;11.60;99.90
52127;DHT22;38120;53.176;6.614;2024-02-14T11:39:10;11.60;99.90
52127;DHT22;38120;53.176;6.614;2024-02-14T11:41:38;11.60;99.90
52127;DHT22;38120;53.176;6.614;2024-02-14T11:44:07;11.60;99.90
52127;DHT22;38120;53.176;6.614;2024-02-14T11:46:36;11.60;99.90
52127;DHT22;38120;53.176;6.614;2024-02-14T11:49:04;11.70;99.90
52127;DHT22;38120;53.176;6.614;2024-02-14T11:51:32;11.70;99.90
52127;DHT22;38120;53.176;6.614;2024-02-14T11:53:58;11.70;99.90
52127;DHT22;38120;53.176;6.614;2024-02-14T11:56:38;11.80;99.90
52127;DHT22;38120;53.176;6.614;2024-02-14T11:59:05;11.80;99.90
52127;DHT22;38120;53.176;6.614;2024-02-14T12:01:32;11.80;99.90
52127;DHT22;38120;53.176;6.614;2024-02-14T12:04:04;11.80;99.90
52127;DHT22;38120;53.176;6.614;2024-02-14T12:06:31;11.80;99.90
52127;DHT22;38120;53.176;6.614;2024-02-14T12:09:03;11.80;99.90
52127;DHT22;38120;53.176;6.614;2024-02-14T12:11:36;11.90;99.90
52127;DHT22;38120;53.176;6.614;2024-02-14T12:14:09;11.90;99.90
52127;DHT22;38120;53.176;6.614;2024-02-14T12:16:38;11.90;99.90
52127;DHT22;38120;53.176;6.614;2024-02-14T12:19:09;11.90;99.90
52127;DHT22;38120;53.176;6.614;2024-02-14T12:21:36;12.10;99.90
52127;DHT22;38120;53.176;6.614;2024-02-14T12:24:04;11.90;99.90
52127;DHT22;38120;53.176;6.614;2024-02-14T12:26:31;11.90;99.90
52127;DHT22;38120;53.176;6.614;2024-02-14T12:28:57;11.90;99.90
52127;DHT22;38120;53.176;6.614;2024-02-14T12:31:24;12.00;99.90
52127;DHT22;38120;53.176;6.614;2024-02-14T12:33:53;12.00;99.90
52127;DHT22;38120;53.176;6.614;2024-02-14T12:36:21;11.90;99.90
52127;DHT22;38120;53.176;6.614;2024-02-14T12:38:47;11.90;99.90
52127;DHT22;38120;53.176;6.614;2024-02-14T12:41:13;11.90;99.90
52127;DHT22;38120;53.176;6.614;2024-02-14T12:43:39;11.90;99.90
52127;DHT22;38120;53.176;6.614;2024-02-14T12:46:05;11.90;99.90
52127;DHT22;38120;53.176;6.614;2024-02-14T12:48:30;12.00;99.90
52127;DHT22;38120;53.176;6.614;2024-02-14T12:50:56;11.90;99.90
52127;DHT22;38120;53.176;6.614;2024-02-14T12:53:23;11.90;99.90
52127;DHT22;38120;53.176;6.614;2024-02-14T12:55:49;11.90;99.90
52127;DHT22;38120;53.176;6.614;2024-02-14T12:58:15;11.90;99.90
52127;DHT22;38120;53.176;6.614;2024-02-14T13:00:42;11.90;99.90
52127;DHT22;38120;53.176;6.614;2024-02-14T13:03:08;12.00;99.90
52127;DHT22;38120;53.176;6.614;2024-02-14T13:05:36;11.90;99.90
52127;DHT22;38120;53.176;6.614;2024-02-14T13:08:02;11.90;99.90
52127;DHT22;38120;53.176;6.614;2024-02-14T13:10:28;11.90;99.90
52127;DHT22;38120;53.176;6.614;2024-02-14T13:12:57;11.90;99.90
52127;DHT22;38120;53.176;6.614;2024-02-14T13:15:22;11.90;99.90
52127;DHT22;38120;53.176;6.614;2024-02-14T13:17:48;11.80;99.90
52127;DHT22;38120;53.176;6.614;2024-02-14T13:20:14;11.90;99.90
52127;DHT22;38120;53.176;6.614;2024-02-14T13:22:41;11.90;99.90
52127;DHT22;38120;53.176;6.614;2024-02-14T13:25:08;11.90;99.90
52127;DHT22;38120;53.176;6.614;2024-02-14T13:27:34;11.90;99.90
52127;DHT22;38120;53.176;6.614;2024-02-14T13:30:03;11.90;99.90
52127;DHT22;38120;53.176;6.614;2024-02-14T13:32:29;11.90;99.90
52127;DHT22;38120;53.176;6.614;2024-02-14T13:34:55;11.90;99.90
52127;DHT22;38120;53.176;6.614;2024-02-14T13:37:22;11.90;99.90
52127;DHT22;38120;53.176;6.614;2024-02-14T13:39:48;11.90;99.90
52127;DHT22;38120;53.176;6.614;2024-02-14T13:42:14;11.90;99.90
52127;DHT22;38120;53.176;6.614;2024-02-14T13:44:39;11.90;99.90
52127;DHT22;38120;53.176;6.614;2024-02-14T13:47:05;11.90;99.90
52127;DHT22;38120;53.176;6.614;2024-02-14T13:49:32;11.90;99.90
52127;DHT22;38120;53.176;6.614;2024-02-14T13:51:57;11.90;99.90
52127;DHT22;38120;53.176;6.614;2024-02-14T13:54:24;11.90;99.90
52127;DHT22;38120;53.176;6.614;2024-02-14T13:56:50;11.80;99.90
52127;DHT22;38120;53.176;6.614;2024-02-14T13:59:16;11.80;99.90
52127;DHT22;38120;53.176;6.614;2024-02-14T14:01:42;11.80;99.90
52127;DHT22;38120;53.176;6.614;2024-02-14T14:04:08;11.80;99.90
52127;DHT22;38120;53.176;6.614;2024-02-14T14:06:34;11.90;99.90
52127;DHT22;38120;53.176;6.614;2024-02-14T14:09:00;11.90;99.90
52127;DHT22;38120;53.176;6.614;2024-02-14T14:11:26;11.90;99.90
52127;DHT22;38120;53.176;6.614;2024-02-14T14:13:52;12.00;99.90
52127;DHT22;38120;53.176;6.614;2024-02-14T14:16:17;12.00;99.90
52127;DHT22;38120;53.176;6.614;2024-02-14T14:18:46;12.00;99.90
52127;DHT22;38120;53.176;6.614;2024-02-14T14:21:12;11.20;99.90
52127;DHT22;38120;53.176;6.614;2024-02-14T14:23:37;12.10;99.90
52127;DHT22;38120;53.176;6.614;2024-02-14T14:26:03;12.00;99.90
52127;DHT22;38120;53.176;6.614;2024-02-14T14:28:29;12.00;99.90
52127;DHT22;38120;53.176;6.614;2024-02-14T14:30:57;12.10;99.90
52127;DHT22;38120;53.176;6.614;2024-02-14T14:33:25;12.00;99.90
52127;DHT22;38120;53.176;6.614;2024-02-14T14:35:51;12.10;99.90
52127;DHT22;38120;53.176;6.614;2024-02-14T14:38:19;12.10;99.90
52127;DHT22;38120;53.176;6.614;2024-02-14T14:40:45;12.10;99.90
52127;DHT22;38120;53.176;6.614;2024-02-14T14:43:12;12.30;99.90
52127;DHT22;38120;53.176;6.614;2024-02-14T14:45:37;12.00;99.90
52127;DHT22;38120;53.176;6.614;2024-02-14T14:48:04;12.10;99.90
52127;DHT22;38120;53.176;6.614;2024-02-14T14:50:30;12.10;99.90
52127;DHT22;38120;53.176;6.614;2024-02-14T14:52:57;12.10;99.90
52127;DHT22;38120;53.176;6.614;2024-02-14T14:55:24;12.10;99.90
52127;DHT22;38120;53.176;6.614;2024-02-14T14:57:50;12.10;99.90
52127;DHT22;38120;53.176;6.614;2024-02-14T15:00:17;12.10;99.90
52127;DHT22;38120;53.176;6.614;2024-02-14T15:02:43;12.10;99.90
52127;DHT22;38120;53.176;6.614;2024-02-14T15:05:11;12.10;99.90
52127;DHT22;38120;53.176;6.614;2024-02-14T15:07:40;12.10;99.90
52127;DHT22;38120;53.176;6.614;2024-02-14T15:10:06;12.10;99.90
52127;DHT22;38120;53.176;6.614;2024-02-14T15:12:36;12.10;99.90
52127;DHT22;38120;53.176;6.614;2024-02-14T15:15:02;12.10;99.90
52127;DHT22;38120;53.176;6.614;2024-02-14T15:17:28;12.10;99.90
52127;DHT22;38120;53.176;6.614;2024-02-14T15:19:55;12.10;99.90
52127;DHT22;38120;53.176;6.614;2024-02-14T15:22:21;12.10;99.90
52127;DHT22;38120;53.176;6.614;2024-02-14T15:24:46;12.10;99.90
52127;DHT22;38120;53.176;6.614;2024-02-14T15:27:12;12.10;99.90
52127;DHT22;38120;53.176;6.614;2024-02-14T15:29:47;12.20;99.90
52127;DHT22;38120;53.176;6.614;2024-02-14T15:32:32;12.10;99.90
52127;DHT22;38120;53.176;6.614;2024-02-14T15:35:16;12.30;99.90